^^
Meteo Knjazevac Station Historical Data
Daily Summary for August 1, 2021 Units:  English    Metric   Both
Daily Weekly Monthly Yearly Custom
  High: Low: Average:
Temperature: 37.8 °F 32.5 °F 35.4 °F
Dew Point: 31.5 °F 27.1 °F 29.2 °F
Humidity: 80% 77% 78%
Wind Speed: 13mph 1mph 5.4mph
Wind Gust: 19mph - -
Wind- - SW
Pressure: 29.96 in 29.95 in -
Precipitation: 0.00 in    
Historical Graphs
 
 
Tabular Data for August 1, 2021
Time Temperature Dew Point Pressure Wind Wind Speed Wind Gust Humidity Rainfall Rate (Hourly) solar Conditions
00:00 32.7 °F 27.2 °F 29.96 in South 3 mph 7 mph 80% 0.00 in 0 W/m2
00:10 32.5 °F 27.1 °F 29.96 in SE 2 mph 4 mph 80% 0.00 in 0 W/m2
00:20 32.7 °F 27.2 °F 29.96 in WSW 2 mph 4 mph 80% 0.00 in 0 W/m2
00:30 32.9 °F 27.1 °F 29.95 in SSW 1 mph 10 mph 79% 0.00 in 0 W/m2
00:40 32.9 °F 27.1 °F 29.95 in SSW 3 mph 10 mph 79% 0.00 in 0 W/m2
00:50 33.1 °F 27.3 °F 29.95 in SSW 3 mph 10 mph 79% 0.00 in 0 W/m2
01:00 33.1 °F 27.3 °F 29.95 in ESE 1 mph 8 mph 79% 0.00 in 0 W/m2
01:10 32.9 °F 27.1 °F 29.95 in West 2 mph 10 mph 79% 0.00 in 0 W/m2
01:20 33.3 °F 27.5 °F 29.95 in WSW 6 mph 11 mph 79% 0.00 in 0 W/m2
01:30 33.7 °F 27.6 °F 29.95 in WSW 8 mph 12 mph 78% 0.00 in 0 W/m2
01:40 34.2 °F 27.7 °F 29.96 in SW 10 mph 19 mph 77% 0.00 in 0 W/m2
01:50 34.5 °F 28.1 °F 29.96 in SW 9 mph 16 mph 77% 0.00 in 0 W/m2
02:00 34.5 °F 28 °F 29.96 in WSW 13 mph 16 mph 77% 0.00 in 0 W/m2
02:10 34.7 °F 28.2 °F 29.96 in SW 10 mph 17 mph 77% 0.00 in 0 W/m2
02:20 34.8 °F 28.3 °F 29.95 in SW 8 mph 14 mph 77% 0.00 in 0 W/m2
02:30 35.1 °F 28.6 °F 29.95 in SW 7 mph 16 mph 77% 0.00 in 0 W/m2
02:40 35.1 °F 28.6 °F 29.95 in SW 9 mph 14 mph 77% 0.00 in 0 W/m2
02:50 35.2 °F 28.8 °F 29.96 in SW 6 mph 13 mph 77% 0.00 in 0 W/m2
03:00 35.4 °F 28.9 °F 29.95 in SW 7 mph 14 mph 77% 0.00 in 0 W/m2
03:10 35.4 °F 28.9 °F 29.96 in SW 6 mph 12 mph 77% 0.00 in 0 W/m2
03:20 35.7 °F 29.2 °F 29.96 in SW 8 mph 16 mph 77% 0.00 in 0 W/m2
03:30 36 °F 29.4 °F 29.96 in SW 9 mph 16 mph 77% 0.00 in 0 W/m2
03:40 36.1 °F 29.6 °F 29.96 in SW 10 mph 16 mph 77% 0.00 in 0 W/m2
03:50 36.4 °F 29.9 °F 29.95 in WSW 9 mph 19 mph 77% 0.00 in 0 W/m2
04:00 36.5 °F 30.3 °F 29.96 in WSW 6 mph 14 mph 78% 0.00 in 0 W/m2
04:10 36.7 °F 30.5 °F 29.95 in SW 3 mph 8 mph 78% 0.00 in 0 W/m2
04:20 36.7 °F 30.1 °F 29.95 in SSW 3 mph 7 mph 77% 0.00 in 0 W/m2
04:30 36.9 °F 30.3 °F 29.95 in SSE 3 mph 8 mph 77% 0.00 in 0 W/m2
04:40 36.9 °F 30.3 °F 29.95 in SSW 2 mph 7 mph 77% 0.00 in 0 W/m2
04:50 36.9 °F 30.3 °F 29.96 in SW 2 mph 8 mph 77% 0.00 in 0 W/m2
05:00 36.9 °F 30.6 °F 29.96 in WNW 1 mph 6 mph 78% 0.00 in 0 W/m2
05:10 36.9 °F 30.6 °F 29.96 in SW 1 mph 4 mph 78% 0.00 in 0 W/m2
05:20 36.7 °F 30.5 °F 29.96 in West 3 mph 7 mph 78% 0.00 in 0 W/m2
05:30 36.7 °F 30.5 °F 29.95 in WSW 6 mph 8 mph 78% 0.00 in 0 W/m2
05:40 36.9 °F 30.6 °F 29.95 in SW 8 mph 13 mph 78% 0.00 in 0 W/m2
05:50 37.2 °F 30.6 °F 29.95 in SW 7 mph 13 mph 77% 0.00 in 0 W/m2
06:00 37.4 °F 30.8 °F 29.96 in SW 7 mph 13 mph 77% 0.00 in 0 W/m2
06:10 37.6 °F 31 °F 29.96 in SW 7 mph 12 mph 77% 0.00 in 0 W/m2
06:20 37.8 °F 31.2 °F 29.96 in SW 5 mph 10 mph 77% 0.00 in 0 W/m2
06:30 37.8 °F 31.5 °F 29.96 in SW 2 mph 9 mph 78% 0.00 in 0 W/m2
06:40 37.8 °F 31.5 °F 29.96 in SSW 3 mph 9 mph 78% 0.00 in 0 W/m2
Knjazevac, Serbia
Compliments of Weather Underground - 2 mb